Anchor Point, Alaska
Current Conditions -  °F | °C
As of 6:53 AM on Friday 24 Oct 2014 (Local Time) from PAHO Reporting Station
Few Clouds Few Clouds  
Wind Chill: 36°   Ceiling: Unl
Heat Index: 36°   Visibility: 10mi
Dew Point: 28°   Wind: 3mph
Humidity: 73%   Direction: 30°NNE
Pressure: 29.77"   Gusts: NA
Location:  59.77°N, 151.82°W
Report Text: PAHO 241453Z 03003KT 10SM FEW055 02/M02 A2977 RMK AO2 SLP082 T00221022 53002
Loading
Personal Weather Stations






























Interactive Weather Map
Tropical Storm Tracking
New forecast layout! Learn more

10-Day Weather Forecast

Advertisements
Track Severe Weather on mobile